Time;durP1;ratioP1;P1;durP2;ratioP2;P2;SDS_P1;SDS_P2;PMS_P1;PMS_P2;Temp;Humidity;BMP_temperature;BMP_pressure;BME280_temperature;BME280_humidity;BME280_pressure;Samples;Min_cycle;Max_cycle;Signal;HPM_P1;HPM_P2
2023/09/22 00:00:30;;;;;;;3.87;2.17;;;;;;;13.95;100.00;100382.88;4967914;28;20190;-74
2023/09/22 00:02:56;;;;;;;3.80;2.20;;;;;;;13.22;100.00;100301.25;4982432;28;20351;-76
2023/09/22 00:05:23;;;;;;;3.00;1.60;;;;;;;14.10;100.00;100429.09;4965650;28;20458;-76
2023/09/22 00:07:49;;;;;;;3.80;2.20;;;;;;;14.18;100.00;100428.75;4967056;28;20202;-77
2023/09/22 00:10:15;;;;;;;3.37;1.70;;;;;;;13.52;100.00;100346.22;4965126;28;20454;-75
2023/09/22 00:12:40;;;;;;;3.00;1.60;;;;;;;14.39;100.00;100440.84;4968847;28;20218;-79
2023/09/22 00:15:06;;;;;;;3.20;1.90;;;;;;;14.05;100.00;100399.28;4969769;28;20211;-75
2023/09/22 00:17:35;;;;;;;3.33;1.80;;;;;;;13.30;100.00;100282.06;4968697;28;20272;-76
2023/09/22 00:20:01;;;;;;;3.77;1.50;;;;;;;13.76;100.00;100337.09;4969789;28;20935;-75
2023/09/22 00:22:26;;;;;;;2.83;1.57;;;;;;;14.41;100.00;100405.56;4967123;28;20497;-76
2023/09/22 00:24:52;;;;;;;3.03;1.87;;;;;;;14.31;100.00;100406.09;4966957;28;20179;-75
2023/09/22 00:27:17;;;;;;;4.60;2.20;;;;;;;14.02;100.00;100421.31;4966900;28;20194;-74
2023/09/22 00:29:43;;;;;;;4.50;2.40;;;;;;;13.36;100.00;100350.34;4969019;28;20190;-75
2023/09/22 00:32:08;;;;;;;4.70;2.43;;;;;;;14.11;100.00;100416.41;4967212;28;20261;-76
2023/09/22 00:34:34;;;;;;;4.40;2.07;;;;;;;13.70;100.00;100337.22;4967031;28;20221;-75
2023/09/22 00:36:59;;;;;;;3.27;1.73;;;;;;;14.21;100.00;100400.50;4969106;28;20549;-78
2023/09/22 00:39:24;;;;;;;3.20;1.70;;;;;;;13.76;100.00;100337.09;4969106;28;20277;-78
2023/09/22 00:41:53;;;;;;;3.87;1.60;;;;;;;13.79;100.00;100320.47;4969506;28;20217;-76
2023/09/22 00:44:19;;;;;;;6.50;2.40;;;;;;;13.88;100.00;100312.88;4968470;28;20183;-76
2023/09/22 00:46:44;;;;;;;2.97;1.70;;;;;;;14.16;100.00;100366.13;4968263;28;20974;-77
2023/09/22 00:49:10;;;;;;;3.43;1.90;;;;;;;14.48;100.00;100425.94;4967500;28;20200;-76
2023/09/22 00:51:35;;;;;;;3.60;2.00;;;;;;;14.35;100.00;100412.69;4968524;28;20526;-78
2023/09/22 00:54:01;;;;;;;3.80;1.97;;;;;;;13.77;100.00;100314.50;4970072;28;20210;-76
2023/09/22 00:56:28;;;;;;;3.00;1.67;;;;;;;13.81;100.00;100314.03;4968193;28;20790;-78
2023/09/22 00:58:54;;;;;;;3.27;1.83;;;;;;;13.67;100.00;100322.34;4970181;28;20198;-76
2023/09/22 01:01:20;;;;;;;3.20;1.50;;;;;;;13.62;100.00;100300.66;4969266;28;20484;-76
2023/09/22 01:03:48;;;;;;;4.20;2.03;;;;;;;13.72;100.00;100343.22;4967993;28;20178;-77
2023/09/22 01:06:14;;;;;;;3.97;1.73;;;;;;;13.80;100.00;100334.78;4966419;28;21051;-76
2023/09/22 01:08:40;;;;;;;6.33;2.30;;;;;;;14.16;100.00;100441.63;4969034;28;20521;-77
2023/09/22 01:11:05;;;;;;;4.30;2.80;;;;;;;13.45;100.00;100305.91;4969442;28;20448;-79
2023/09/22 01:13:31;;;;;;;5.20;2.87;;;;;;;13.65;100.00;100370.25;4966615;28;20680;-73
2023/09/22 01:15:57;;;;;;;4.37;2.80;;;;;;;14.28;100.00;100438.13;4963050;28;20212;-78
2023/09/22 01:18:23;;;;;;;4.20;2.97;;;;;;;14.32;100.00;100450.94;4966960;28;20190;-76
2023/09/22 01:20:48;;;;;;;3.80;2.67;;;;;;;14.00;100.00;100367.63;4967763;28;20505;-74
2023/09/22 01:23:14;;;;;;;3.80;2.47;;;;;;;14.61;100.00;100453.78;4965303;28;20219;-74
2023/09/22 01:25:41;;;;;;;4.60;3.10;;;;;;;14.67;100.00;100455.56;4966137;28;20194;-78
2023/09/22 01:28:08;;;;;;;4.60;3.00;;;;;;;13.93;100.00;100349.91;4966137;28;20541;-79
2023/09/22 01:30:34;;;;;;;5.07;3.30;;;;;;;13.71;100.00;100355.03;4967478;28;20500;-78
2023/09/22 01:33:03;;;;;;;4.13;3.27;;;;;;;14.14;100.00;100414.06;4966991;28;20469;-76
2023/09/22 01:35:32;;;;;;;6.13;3.07;;;;;;;13.97;100.00;100429.28;4966531;28;20437;-73
2023/09/22 01:38:10;;;;;;;4.90;2.80;;;;;;;14.20;100.00;100477.91;4972080;28;20456;-72
2023/09/22 01:40:36;;;;;;;3.87;2.70;;;;;;;13.32;100.00;100322.25;4971506;28;20488;-76
2023/09/22 01:43:01;;;;;;;3.83;2.67;;;;;;;13.68;100.00;100423.72;4974145;28;20872;-76
2023/09/22 01:45:27;;;;;;;4.47;2.80;;;;;;;13.53;100.00;100370.22;4973209;28;20198;-74
2023/09/22 01:47:52;;;;;;;4.23;2.60;;;;;;;13.91;100.00;100438.28;4973465;28;20198;-77
2023/09/22 01:50:19;;;;;;;4.07;3.07;;;;;;;13.63;100.00;100388.53;4973167;28;20189;-77
2023/09/22 01:52:44;;;;;;;3.67;2.13;;;;;;;13.88;100.00;100396.44;4971842;28;20866;-77
2023/09/22 01:55:10;;;;;;;5.47;2.50;;;;;;;13.86;100.00;100422.00;4973775;28;20480;-78
2023/09/22 01:57:36;;;;;;;3.60;2.50;;;;;;;13.47;100.00;100411.53;4971515;28;20194;-76
2023/09/22 02:00:10;;;;;;;4.30;2.60;;;;;;;13.68;100.00;100439.88;4972138;28;20441;-76
2023/09/22 02:02:36;;;;;;;3.30;1.87;;;;;;;13.50;100.00;100413.78;4972513;28;20210;-75
2023/09/22 02:05:02;;;;;;;3.60;2.10;;;;;;;13.90;100.00;100485.19;4970698;28;20858;-71
2023/09/22 02:07:28;;;;;;;3.53;2.00;;;;;;;13.74;100.00;100455.13;4971575;28;20477;-77
2023/09/22 02:09:53;;;;;;;3.13;1.53;;;;;;;14.18;100.00;100509.66;4971764;28;20548;-77
2023/09/22 02:12:19;;;;;;;2.80;1.53;;;;;;;14.26;100.00;100546.25;4972203;28;20266;-74
2023/09/22 02:14:44;;;;;;;2.90;1.23;;;;;;;13.97;100.00;100473.25;4968286;28;20222;-75
2023/09/22 02:17:10;;;;;;;2.93;1.37;;;;;;;13.54;100.00;100439.25;4971976;28;20787;-75
2023/09/22 02:19:35;;;;;;;4.03;1.60;;;;;;;13.99;100.00;100502.69;4973330;28;20195;-76
2023/09/22 02:22:02;;;;;;;2.43;1.07;;;;;;;13.64;100.00;100452.16;4973334;28;20205;-73
2023/09/22 02:24:27;;;;;;;2.57;1.00;;;;;;;13.64;100.00;100433.28;4975127;28;20185;-76
2023/09/22 02:26:53;;;;;;;2.63;1.33;;;;;;;13.74;100.00;100448.91;4974042;28;20429;-78
2023/09/22 02:29:18;;;;;;;2.30;1.00;;;;;;;13.57;100.00;100443.34;4973849;28;20198;-75
2023/09/22 02:31:43;;;;;;;2.63;1.10;;;;;;;13.73;100.00;100425.69;4972946;28;20734;-75
2023/09/22 02:34:09;;;;;;;2.70;1.20;;;;;;;14.37;100.00;100544.66;4974746;28;20218;-75
2023/09/22 02:36:34;;;;;;;3.27;1.27;;;;;;;14.69;100.00;100537.97;4972860;28;20201;-78
2023/09/22 02:39:00;;;;;;;2.80;1.27;;;;;;;14.19;100.00;100443.06;4974192;28;20191;-78
2023/09/22 02:41:25;;;;;;;3.07;1.40;;;;;;;14.47;100.00;100483.69;4972796;28;20309;-74
2023/09/22 02:43:50;;;;;;;2.97;1.30;;;;;;;14.65;100.00;100496.28;4974771;28;20202;-74
2023/09/22 02:46:16;;;;;;;3.80;1.33;;;;;;;14.01;100.00;100423.19;4974800;28;20274;-78
2023/09/22 02:48:41;;;;;;;2.90;1.57;;;;;;;14.01;100.00;100417.81;4972159;28;20293;-76
2023/09/22 02:51:08;;;;;;;2.93;1.67;;;;;;;14.66;100.00;100513.28;4971791;28;20194;-78
2023/09/22 02:53:34;;;;;;;3.40;1.80;;;;;;;13.98;100.00;100391.31;4970171;28;20206;-77
2023/09/22 02:56:05;;;;;;;5.63;2.50;;;;;;;13.91;100.00;100390.56;4969377;28;20449;-75
2023/09/22 02:58:31;;;;;;;4.10;2.23;;;;;;;14.10;100.00;100399.41;4969679;28;20484;-74
2023/09/22 03:00:56;;;;;;;4.77;3.00;;;;;;;14.18;100.00;100431.44;4970264;28;20429;-75
2023/09/22 03:03:22;;;;;;;4.30;3.30;;;;;;;14.55;100.00;100498.75;4970163;28;20886;-78
2023/09/22 03:05:48;;;;;;;5.20;3.60;;;;;;;14.23;100.00;100455.84;4971294;28;20273;-75
2023/09/22 03:08:13;;;;;;;7.53;6.00;;;;;;;14.38;100.00;100497.75;4970102;28;20198;-75
2023/09/22 03:10:39;;;;;;;8.30;5.40;;;;;;;14.70;100.00;100541.47;4971174;28;21037;-75
2023/09/22 03:13:04;;;;;;;8.13;6.33;;;;;;;14.00;100.00;100459.31;4966463;28;20269;-74
2023/09/22 03:15:30;;;;;;;9.03;7.73;;;;;;;14.02;100.00;100470.69;4969320;28;20202;-76
2023/09/22 03:17:56;;;;;;;10.50;8.27;;;;;;;14.75;100.00;100578.56;4970231;28;20201;-75
2023/09/22 03:20:22;;;;;;;12.37;9.40;;;;;;;14.63;100.00;100594.72;4968848;28;20198;-76
2023/09/22 03:22:47;;;;;;;10.33;9.23;;;;;;;14.64;100.00;100610.72;4966190;28;20465;-76
2023/09/22 03:25:13;;;;;;;11.67;9.20;;;;;;;13.99;100.00;100525.06;4966335;28;20261;-73
2023/09/22 03:27:39;;;;;;;9.90;8.57;;;;;;;14.73;100.00;100638.19;4967554;28;20277;-76
2023/09/22 03:30:06;;;;;;;11.30;9.90;;;;;;;13.93;100.00;100544.03;4967665;28;20434;-77
2023/09/22 03:32:32;;;;;;;16.80;10.13;;;;;;;14.19;100.00;100588.72;4969028;28;20213;-77
2023/09/22 03:34:58;;;;;;;15.50;10.20;;;;;;;13.81;100.00;100544.00;4970030;28;20469;-74
2023/09/22 03:37:28;;;;;;;11.73;10.37;;;;;;;14.07;100.00;100594.06;4969704;28;20450;-74
2023/09/22 03:39:56;;;;;;;12.70;11.40;;;;;;;14.39;100.00;100686.38;4970374;28;20244;-73
2023/09/22 03:42:23;;;;;;;13.53;11.47;;;;;;;13.82;100.00;100599.53;4966952;28;20515;-76
2023/09/22 03:44:48;;;;;;;13.70;11.70;;;;;;;14.55;100.00;100725.47;4967387;28;20438;-73
2023/09/22 03:47:14;;;;;;;11.53;10.33;;;;;;;14.34;100.00;100701.59;4970542;28;20499;-72
2023/09/22 03:49:39;;;;;;;12.33;11.03;;;;;;;14.61;100.00;100731.78;4968349;28;20237;-76
2023/09/22 03:52:05;;;;;;;12.03;10.80;;;;;;;14.15;100.00;100671.16;4970824;28;20639;-74
2023/09/22 03:54:30;;;;;;;13.77;11.90;;;;;;;13.76;100.00;100627.41;4969532;28;20972;-75
2023/09/22 03:56:56;;;;;;;12.27;10.97;;;;;;;14.07;100.00;100679.53;4969280;28;20190;-74
2023/09/22 03:59:22;;;;;;;12.27;10.97;;;;;;;13.82;100.00;100652.63;4969966;28;20195;-73
2023/09/22 04:01:47;;;;;;;11.87;10.63;;;;;;;14.15;100.00;100698.94;4967731;28;20206;-72
2023/09/22 04:04:14;;;;;;;12.30;10.80;;;;;;;13.68;100.00;100628.56;4970037;28;20472;-72
2023/09/22 04:06:39;;;;;;;11.17;10.00;;;;;;;14.39;100.00;100740.34;4966534;28;20182;-72
2023/09/22 04:09:06;;;;;;;11.43;10.30;;;;;;;14.37;100.00;100730.81;4970399;28;20430;-74
2023/09/22 04:11:32;;;;;;;12.40;11.10;;;;;;;13.86;100.00;100659.25;4968178;28;20579;-72
2023/09/22 04:13:57;;;;;;;14.83;12.50;;;;;;;14.19;100.00;100702.81;4968361;28;20471;-71
2023/09/22 04:16:23;;;;;;;14.43;12.67;;;;;;;14.14;100.00;100683.78;4969718;28;20193;-70
2023/09/22 04:18:54;;;;;;;14.80;12.50;;;;;;;14.25;100.00;100709.19;4968189;28;20202;-72
2023/09/22 04:21:22;;;;;;;12.87;11.53;;;;;;;13.64;100.00;100608.47;4965985;28;20421;-76
2023/09/22 04:23:57;;;;;;;16.23;12.40;;;;;;;14.47;100.00;100725.72;4966417;28;20453;-76
2023/09/22 04:26:27;;;;;;;15.67;12.20;;;;;;;13.57;100.00;100605.84;4966569;28;20440;-71
2023/09/22 04:28:54;;;;;;;14.27;10.97;;;;;;;14.23;100.00;100673.50;4966540;28;20434;-71
2023/09/22 04:31:22;;;;;;;13.13;11.73;;;;;;;13.63;100.00;100587.97;4979741;28;20447;-75
2023/09/22 04:33:47;;;;;;;14.20;12.10;;;;;;;14.40;100.00;100715.00;4981475;28;20498;-72
2023/09/22 04:36:12;;;;;;;14.10;12.57;;;;;;;14.46;100.00;100710.56;4968544;28;20514;-72
2023/09/22 04:38:38;;;;;;;12.83;11.37;;;;;;;13.60;100.00;100588.41;4968172;28;20253;-72
2023/09/22 04:41:06;;;;;;;13.83;12.20;;;;;;;14.02;100.00;100645.97;4966974;28;20610;-71
2023/09/22 04:43:32;;;;;;;13.30;11.70;;;;;;;13.68;100.00;100617.78;4965512;28;20658;-70
2023/09/22 04:46:00;;;;;;;12.20;10.87;;;;;;;14.52;100.00;100715.09;4967605;28;21496;-73
2023/09/22 04:48:26;;;;;;;12.80;10.77;;;;;;;13.59;100.00;100585.94;4968705;28;20444;-71
2023/09/22 04:50:54;;;;;;;21.00;10.67;;;;;;;14.17;100.00;100696.00;4966805;28;20438;-71
2023/09/22 04:53:20;;;;;;;14.10;10.83;;;;;;;13.51;100.00;100612.13;4965721;28;20688;-74
2023/09/22 04:55:46;;;;;;;14.60;10.50;;;;;;;14.08;100.00;100719.75;4968462;28;20449;-70
2023/09/22 04:58:14;;;;;;;12.97;9.83;;;;;;;14.27;100.00;100730.56;4969038;28;20190;-72
2023/09/22 05:00:40;;;;;;;10.37;9.07;;;;;;;14.27;100.00;100725.16;4968216;28;20759;-71
2023/09/22 05:03:06;;;;;;;10.90;8.90;;;;;;;13.74;100.00;100659.16;4964333;28;20809;-71
2023/09/22 05:05:32;;;;;;;11.37;7.90;;;;;;;13.68;100.00;100622.31;4967424;28;20535;-73
2023/09/22 05:07:59;;;;;;;10.10;7.70;;;;;;;14.28;100.00;100726.78;4967985;28;21152;-71
2023/09/22 05:10:24;;;;;;;8.33;7.33;;;;;;;13.71;100.00;100617.31;4968141;28;20189;-72
2023/09/22 05:12:51;;;;;;;10.00;7.60;;;;;;;13.68;100.00;100633.09;4966622;28;20452;-72
2023/09/22 05:15:17;;;;;;;11.60;8.43;;;;;;;14.05;100.00;100703.19;4968092;28;20603;-72
2023/09/22 05:17:43;;;;;;;10.00;7.50;;;;;;;12.34;100.00;100481.91;4964764;28;20437;-72
2023/09/22 05:20:12;;;;;;;12.03;7.80;;;;;;;14.00;100.00;100707.41;4966090;28;20265;-71
2023/09/22 05:22:38;;;;;;;9.10;7.63;;;;;;;13.23;100.00;100588.34;4978674;28;20503;-72
2023/09/22 05:25:19;;;;;;;9.57;8.43;;;;;;;13.73;100.00;100677.19;4962626;28;20453;-71
2023/09/22 05:27:45;;;;;;;10.23;7.43;;;;;;;13.87;100.00;100704.84;4966298;28;20537;-71
2023/09/22 05:30:11;;;;;;;12.60;9.60;;;;;;;13.95;100.00;100725.31;4965872;28;20441;-70
2023/09/22 05:32:37;;;;;;;12.40;10.30;;;;;;;14.04;100.00;100717.75;4962857;28;20545;-71
2023/09/22 05:35:02;;;;;;;11.53;9.77;;;;;;;13.85;100.00;100677.28;4960259;28;21397;-70
2023/09/22 05:37:28;;;;;;;11.60;9.03;;;;;;;14.05;100.00;100709.41;4964241;28;20484;-71
2023/09/22 05:39:53;;;;;;;17.43;9.40;;;;;;;13.83;100.00;100663.22;4981135;28;20636;-73
2023/09/22 05:42:19;;;;;;;13.47;11.00;;;;;;;13.38;100.00;100595.28;4967827;28;20218;-71
2023/09/22 05:44:44;;;;;;;12.93;10.47;;;;;;;13.14;100.00;100584.31;4967079;28;20529;-71
2023/09/22 05:47:10;;;;;;;13.73;9.87;;;;;;;13.79;100.00;100675.47;4963397;28;20190;-71
2023/09/22 05:49:35;;;;;;;12.47;9.37;;;;;;;13.35;100.00;100642.34;4966679;28;20649;-71
2023/09/22 05:52:01;;;;;;;10.23;8.90;;;;;;;13.33;100.00;100639.03;4965292;28;20210;-69
2023/09/22 05:54:27;;;;;;;14.73;9.17;;;;;;;13.40;100.00;100647.09;4965293;28;20241;-70
2023/09/22 05:56:52;;;;;;;10.70;8.17;;;;;;;13.21;100.00;100621.94;4968007;28;20540;-70
2023/09/22 05:59:18;;;;;;;12.10;9.30;;;;;;;13.94;100.00;100737.13;4965677;28;20194;-69
2023/09/22 06:01:43;;;;;;;10.90;8.90;;;;;;;13.57;100.00;100675.09;4964340;28;20206;-70
2023/09/22 06:04:11;;;;;;;14.37;10.80;;;;;;;13.90;100.00;100738.63;4966279;28;20186;-70
2023/09/22 06:06:37;;;;;;;13.43;12.03;;;;;;;13.02;100.00;100618.38;4966857;28;20558;-70
2023/09/22 06:09:11;;;;;;;14.27;10.50;;;;;;;13.15;100.00;100626.34;4968269;28;20430;-71
2023/09/22 06:11:38;;;;;;;17.53;11.27;;;;;;;13.05;100.00;100624.16;4966726;28;20195;-71
2023/09/22 06:14:05;;;;;;;15.10;11.43;;;;;;;13.40;100.00;100645.19;4967291;28;20477;-72
2023/09/22 06:16:30;;;;;;;14.80;11.70;;;;;;;13.91;100.00;100714.13;4968286;28;20448;-71
2023/09/22 06:18:56;;;;;;;17.40;13.00;;;;;;;13.91;100.00;100697.13;4970418;28;20429;-71
2023/09/22 06:21:21;;;;;;;15.10;11.60;;;;;;;14.11;100.00;100713.09;4967538;28;20178;-72
2023/09/22 06:23:49;;;;;;;20.83;12.47;;;;;;;13.69;100.00;100650.94;4966791;28;20217;-71
2023/09/22 06:26:15;;;;;;;16.10;12.83;;;;;;;13.66;100.00;100665.66;4971106;28;20186;-71
2023/09/22 06:28:41;;;;;;;15.63;12.13;;;;;;;13.46;100.00;100611.97;4968604;28;20504;-70
2023/09/22 06:31:06;;;;;;;14.80;12.80;;;;;;;13.25;100.00;100598.88;4962343;28;20194;-70
2023/09/22 06:33:32;;;;;;;20.23;12.70;;;;;;;13.64;100.00;100659.66;4970784;28;20503;-71
2023/09/22 06:36:03;;;;;;;16.47;12.70;;;;;;;13.70;100.00;100664.16;4967766;28;20645;-71
2023/09/22 06:38:32;;;;;;;14.23;11.67;;;;;;;13.86;100.00;100687.03;4967600;28;20221;-72
2023/09/22 06:41:02;;;;;;;15.47;12.33;;;;;;;13.47;100.00;100654.03;4983860;28;20488;-71
2023/09/22 06:43:27;;;;;;;15.10;11.90;;;;;;;13.96;100.00;100713.47;4968359;28;20540;-71
2023/09/22 06:45:58;;;;;;;17.07;13.10;;;;;;;12.70;100.00;100535.00;4968169;28;20333;-71
2023/09/22 06:48:25;;;;;;;18.10;13.93;;;;;;;13.26;100.00;100622.13;4983039;28;20197;-71
2023/09/22 06:50:52;;;;;;;20.67;14.20;;;;;;;13.85;100.00;100698.84;4967693;28;21014;-71
2023/09/22 06:53:18;;;;;;;18.47;14.50;;;;;;;13.75;100.00;100696.66;4967876;28;20883;-68
2023/09/22 06:55:44;;;;;;;21.00;15.50;;;;;;;13.29;100.00;100644.06;4968145;28;20461;-69
2023/09/22 06:58:10;;;;;;;19.20;14.33;;;;;;;13.64;100.00;100696.59;4969791;28;20442;-70
2023/09/22 07:00:35;;;;;;;18.37;14.43;;;;;;;13.98;100.00;100720.28;4969240;28;20457;-71
2023/09/22 07:03:01;;;;;;;18.30;15.97;;;;;;;13.97;100.00;100733.97;4965699;28;20210;-71
2023/09/22 07:05:26;;;;;;;18.13;15.27;;;;;;;13.75;100.00;100734.41;4967438;28;20178;-71
2023/09/22 07:07:52;;;;;;;18.60;15.30;;;;;;;13.10;100.00;100616.25;4970601;28;20208;-70
2023/09/22 07:10:18;;;;;;;19.23;15.27;;;;;;;13.08;100.00;100622.88;4967649;28;20664;-71
2023/09/22 07:12:44;;;;;;;16.83;13.73;;;;;;;13.70;100.00;100683.03;4967365;28;20556;-70
2023/09/22 07:15:10;;;;;;;18.60;14.77;;;;;;;13.81;100.00;100702.22;4971812;28;21005;-71
2023/09/22 07:17:36;;;;;;;17.60;14.30;;;;;;;13.32;100.00;100613.16;4971756;28;20652;-71
2023/09/22 07:20:04;;;;;;;17.30;14.37;;;;;;;13.80;100.00;100677.16;4967709;28;20446;-69
2023/09/22 07:22:33;;;;;;;16.80;14.33;;;;;;;14.17;100.00;100723.78;4965374;28;20931;-71
2023/09/22 07:24:59;;;;;;;16.57;14.50;;;;;;;13.44;100.00;100594.38;4967477;28;20434;-72
2023/09/22 07:27:25;;;;;;;24.20;16.40;;;;;;;13.24;100.00;100622.31;4966367;28;20495;-70
2023/09/22 07:29:50;;;;;;;20.27;16.17;;;;;;;13.39;100.00;100615.78;4966564;28;20438;-71
2023/09/22 07:32:17;;;;;;;19.60;15.23;;;;;;;13.40;100.00;100641.69;4966371;28;20361;-71
2023/09/22 07:34:42;;;;;;;20.73;15.13;;;;;;;13.30;100.00;100626.00;4965641;28;20222;-71
2023/09/22 07:37:11;;;;;;;18.20;15.10;;;;;;;13.59;100.00;100674.84;4966843;28;20947;-70
2023/09/22 07:39:39;;;;;;;18.33;13.90;;;;;;;13.30;100.00;100651.06;4966547;28;20221;-70
2023/09/22 07:42:06;;;;;;;19.30;12.33;;;;;;;13.89;100.00;100735.09;4968738;28;20974;-70
2023/09/22 07:44:32;;;;;;;15.87;12.70;;;;;;;13.89;100.00;100704.63;4967667;28;20924;-71
2023/09/22 07:47:00;;;;;;;16.70;12.73;;;;;;;14.02;100.00;100739.53;4966708;28;20445;-71
2023/09/22 07:49:26;;;;;;;16.90;13.37;;;;;;;14.03;100.00;100754.69;4965357;28;20202;-71
2023/09/22 07:51:52;;;;;;;15.77;12.03;;;;;;;13.51;100.00;100649.00;4965441;28;20461;-70
2023/09/22 07:54:21;;;;;;;15.40;11.30;;;;;;;13.66;100.00;100681.84;4967795;28;20481;-70
2023/09/22 07:56:46;;;;;;;15.20;11.13;;;;;;;14.00;100.00;100738.91;4967154;28;20446;-71
2023/09/22 07:59:14;;;;;;;15.00;11.17;;;;;;;13.25;100.00;100624.00;4965928;28;20505;-71
2023/09/22 08:01:42;;;;;;;13.93;10.50;;;;;;;13.50;100.00;100631.22;4963575;28;20210;-71
2023/09/22 08:04:09;;;;;;;14.23;10.17;;;;;;;13.33;100.00;100637.16;4965439;28;20442;-69
2023/09/22 08:06:34;;;;;;;14.53;10.10;;;;;;;13.82;100.00;100674.22;4966736;28;20943;-71
2023/09/22 08:09:00;;;;;;;13.37;10.13;;;;;;;13.39;100.00;100630.06;4965844;28;20430;-71
2023/09/22 08:11:26;;;;;;;15.40;10.17;;;;;;;13.97;100.00;100685.44;4964619;28;20186;-71
2023/09/22 08:13:51;;;;;;;13.67;9.33;;;;;;;14.10;100.00;100712.25;4967303;28;20210;-70
2023/09/22 08:16:17;;;;;;;14.33;9.40;;;;;;;14.01;100.00;100710.91;4965732;28;21199;-71
2023/09/22 08:18:43;;;;;;;13.67;9.13;;;;;;;14.15;100.00;100704.31;4960861;28;20183;-77
2023/09/22 08:21:09;;;;;;;15.00;10.07;;;;;;;13.51;100.00;100609.44;4967091;28;20445;-73
2023/09/22 08:23:34;;;;;;;11.90;9.70;;;;;;;13.62;100.00;100634.00;4964895;28;20229;-71
2023/09/22 08:26:07;;;;;;;13.20;9.90;;;;;;;14.08;100.00;100718.94;4956446;28;20213;-71
2023/09/22 08:28:33;;;;;;;14.80;9.30;;;;;;;13.29;100.00;100635.16;4963158;28;20221;-71
2023/09/22 08:30:59;;;;;;;12.17;9.40;;;;;;;14.02;100.00;100712.56;4965512;28;20521;-71
2023/09/22 08:33:24;;;;;;;12.60;8.60;;;;;;;13.94;100.00;100756.84;4962501;28;20221;-70
2023/09/22 08:35:51;;;;;;;16.80;9.70;;;;;;;13.39;100.00;100650.81;4967085;28;20183;-71
2023/09/22 08:38:17;;;;;;;13.57;9.17;;;;;;;13.82;100.00;100747.81;4966096;28;20257;-71
2023/09/22 08:40:48;;;;;;;12.30;9.00;;;;;;;13.66;100.00;100716.88;4965831;28;20425;-71
2023/09/22 08:43:14;;;;;;;14.53;9.43;;;;;;;13.22;100.00;100640.56;4973578;28;20502;-70
2023/09/22 08:45:40;;;;;;;12.87;9.37;;;;;;;13.11;100.00;100647.50;4965967;28;20999;-70
2023/09/22 08:48:05;;;;;;;13.10;9.57;;;;;;;13.62;100.00;100736.41;4966682;28;20273;-70
2023/09/22 08:50:31;;;;;;;14.33;9.97;;;;;;;13.84;100.00;100771.88;4966624;28;20214;-70
2023/09/22 08:52:57;;;;;;;15.17;9.20;;;;;;;13.61;100.00;100748.22;4967859;28;20202;-70
2023/09/22 08:55:23;;;;;;;13.90;8.70;;;;;;;13.61;100.00;100762.53;4980653;28;20221;-71
2023/09/22 08:57:49;;;;;;;13.60;8.23;;;;;;;13.72;100.00;100771.78;4980958;28;20595;-70
2023/09/22 09:00:20;;;;;;;13.97;9.20;;;;;;;13.77;100.00;100782.72;4968444;28;20453;-70
2023/09/22 09:02:55;;;;;;;9.77;7.30;;;;;;;13.45;100.00;100715.41;4965329;28;20453;-69
2023/09/22 09:05:29;;;;;;;10.07;7.27;;;;;;;13.96;100.00;100768.22;4967890;28;20500;-68
2023/09/22 09:08:09;;;;;;;9.30;7.30;;;;;;;13.81;100.00;100719.22;4968866;28;20472;-70
2023/09/22 09:10:35;;;;;;;8.43;6.53;;;;;;;13.29;100.00;100670.16;4980059;28;20452;-71
2023/09/22 09:13:01;;;;;;;10.70;7.60;;;;;;;13.33;100.00;100671.38;4962988;28;20918;-70
2023/09/22 09:15:29;;;;;;;10.80;7.37;;;;;;;13.28;100.00;100660.44;4964954;28;20480;-71
2023/09/22 09:18:07;;;;;;;12.37;7.83;;;;;;;14.01;100.00;100762.16;4964298;28;20476;-70
2023/09/22 09:20:35;;;;;;;11.50;7.50;;;;;;;14.05;100.00;100767.91;4964114;28;20533;-71
2023/09/22 09:23:12;;;;;;;14.50;8.07;;;;;;;13.98;100.00;100768.00;4966703;28;20366;-71
2023/09/22 09:25:45;;;;;;;9.93;6.73;;;;;;;14.00;100.00;100755.09;4965967;28;20454;-70
2023/09/22 09:28:12;;;;;;;10.97;6.57;;;;;;;14.04;100.00;100772.50;4967410;28;20442;-72
2023/09/22 09:30:39;;;;;;;10.73;6.73;;;;;;;14.07;100.00;100745.09;4964559;28;20473;-71
2023/09/22 09:33:09;;;;;;;10.40;6.40;;;;;;;13.52;100.00;100637.22;4963718;28;20468;-71
2023/09/22 09:35:35;;;;;;;8.83;6.40;;;;;;;14.39;100.00;100759.25;4964152;28;20477;-70
2023/09/22 09:38:05;;;;;;;8.83;6.00;;;;;;;14.16;100.00;100741.03;4964312;28;20442;-72
2023/09/22 09:40:37;;;;;;;10.03;6.53;;;;;;;13.55;100.00;100687.97;4963488;28;20813;-72
2023/09/22 09:43:06;;;;;;;8.57;5.80;;;;;;;13.73;100.00;100708.72;4962680;28;20470;-71
2023/09/22 09:45:34;;;;;;;12.93;5.47;;;;;;;14.41;100.00;100772.53;4963862;28;20445;-71
2023/09/22 09:48:03;;;;;;;8.53;5.13;;;;;;;14.30;100.00;100746.28;4965534;28;20445;-74
2023/09/22 09:50:33;;;;;;;8.53;5.10;;;;;;;13.88;100.00;100638.25;4965347;28;20541;-76
2023/09/22 09:53:06;;;;;;;7.97;5.33;;;;;;;13.91;100.00;100646.72;4964615;28;20474;-74
2023/09/22 09:55:35;;;;;;;8.17;4.87;;;;;;;13.79;100.00;100637.75;4964750;28;20478;-72
2023/09/22 09:58:02;;;;;;;6.83;4.03;;;;;;;14.65;100.00;100750.00;4967130;28;20476;-71
2023/09/22 10:00:28;;;;;;;6.93;4.00;;;;;;;13.96;100.00;100657.66;4971162;28;20490;-71
2023/09/22 10:02:58;;;;;;;9.40;3.80;;;;;;;14.05;100.00;100650.09;4964478;28;20462;-74
2023/09/22 10:05:24;;;;;;;7.83;4.00;;;;;;;14.34;100.00;100636.84;4967450;28;20973;-71
2023/09/22 10:07:51;;;;;;;6.40;3.70;;;;;;;14.57;100.00;100661.25;4984369;28;20656;-75
2023/09/22 10:10:19;;;;;;;7.33;3.63;;;;;;;14.72;100.00;100687.81;4970201;28;20524;-74
2023/09/22 10:12:46;;;;;;;8.30;3.10;;;;;;;14.57;100.00;100638.84;4968289;28;20540;-77
2023/09/22 10:15:12;;;;;;;7.67;3.20;;;;;;;14.60;100.00;100636.50;4971128;28;20509;-74
2023/09/22 10:17:38;;;;;;;7.60;2.93;;;;;;;14.97;100.00;100655.25;4965901;28;20877;-72
2023/09/22 10:20:11;;;;;;;7.47;3.00;;;;;;;15.13;100.00;100638.38;4968034;28;20182;-75
2023/09/22 10:22:40;;;;;;;5.63;2.90;;;;;;;15.37;100.00;100666.22;4981663;28;20944;-73
2023/09/22 10:25:15;;;;;;;7.30;3.30;;;;;;;15.58;100.00;100662.09;4970616;28;20481;-73
2023/09/22 10:27:59;;;;;;;9.70;3.40;;;;;;;15.38;100.00;100626.50;4967708;28;20896;-74
2023/09/22 10:30:45;;;;;;;7.07;2.37;;;;;;;15.67;100.00;100635.53;4969185;28;20445;-76
2023/09/22 10:33:16;;;;;;;6.50;2.70;;;;;;;15.93;100.00;100615.28;4967682;28;20469;-71
2023/09/22 10:35:42;;;;;;;5.70;2.37;;;;;;;15.38;100.00;100497.59;4963913;28;20846;-76
2023/09/22 10:38:12;;;;;;;5.40;2.13;;;;;;;15.83;100.00;100579.94;4970879;28;20441;-76
2023/09/22 10:40:40;;;;;;;7.83;2.60;;;;;;;14.81;100.00;100462.38;4964897;28;20449;-75
2023/09/22 10:43:06;;;;;;;4.90;2.20;;;;;;;15.07;100.00;100433.19;4967194;28;20528;-77
2023/09/22 10:45:31;;;;;;;5.97;2.57;;;;;;;15.35;100.00;100427.00;4965289;28;20441;-77
2023/09/22 10:47:58;;;;;;;5.23;2.20;;;;;;;16.01;100.00;100470.72;4969940;28;20768;-76
2023/09/22 10:50:31;;;;;;;4.03;1.90;;;;;;;16.03;100.00;100490.25;4966945;28;20217;-73
2023/09/22 10:53:02;;;;;;;5.53;2.30;;;;;;;15.94;100.00;100499.78;4969899;28;20544;-75
2023/09/22 10:55:37;;;;;;;6.13;1.87;;;;;;;15.94;100.00;100506.03;4969011;28;20500;-74
2023/09/22 10:58:07;;;;;;;6.37;2.30;;;;;;;15.75;100.00;100510.00;4969306;28;20449;-75
2023/09/22 11:00:39;;;;;;;7.30;2.10;;;;;;;15.25;100.00;100426.81;4982660;28;20441;-76
2023/09/22 11:03:10;;;;;;;4.90;1.70;;;;;;;15.17;100.00;100419.91;4969103;28;20935;-75
2023/09/22 11:05:37;;;;;;;3.50;1.67;;;;;;;15.58;100.00;100396.38;4968620;28;20441;-76
2023/09/22 11:08:17;;;;;;;4.67;1.60;;;;;;;15.12;100.00;100341.47;4964604;28;20449;-78